sensor_id;sensor_type;location;lat;lon;timestamp;P1;durP1;ratioP1;P2;durP2;ratioP2
11447;SDS011;43755;49.736;8.734;2022-10-03T00:04:23;19.58;;;13.13;;
11447;SDS011;43755;49.736;8.734;2022-10-03T00:06:35;20.15;;;12.93;;
11447;SDS011;43755;49.736;8.734;2022-10-03T00:08:45;16.38;;;11.95;;
11447;SDS011;43755;49.736;8.734;2022-10-03T00:11:07;15.60;;;10.77;;
11447;SDS011;43755;49.736;8.734;2022-10-03T00:13:24;18.98;;;11.57;;
11447;SDS011;43755;49.736;8.734;2022-10-03T00:15:38;16.00;;;11.13;;
11447;SDS011;43755;49.736;8.734;2022-10-03T00:17:45;21.45;;;12.63;;
11447;SDS011;43755;49.736;8.734;2022-10-03T00:19:58;19.10;;;11.85;;
11447;SDS011;43755;49.736;8.734;2022-10-03T00:22:12;16.52;;;11.63;;
11447;SDS011;43755;49.736;8.734;2022-10-03T00:24:24;19.73;;;12.02;;
11447;SDS011;43755;49.736;8.734;2022-10-03T00:26:38;21.15;;;12.27;;
11447;SDS011;43755;49.736;8.734;2022-10-03T00:28:48;18.90;;;12.57;;
11447;SDS011;43755;49.736;8.734;2022-10-03T00:31:06;14.88;;;11.70;;
11447;SDS011;43755;49.736;8.734;2022-10-03T00:33:14;37.28;;;12.85;;
11447;SDS011;43755;49.736;8.734;2022-10-03T00:35:28;31.23;;;13.07;;
11447;SDS011;43755;49.736;8.734;2022-10-03T00:37:42;19.58;;;12.27;;
11447;SDS011;43755;49.736;8.734;2022-10-03T00:39:58;46.53;;;14.20;;
11447;SDS011;43755;49.736;8.734;2022-10-03T00:45:00;21.98;;;13.23;;
11447;SDS011;43755;49.736;8.734;2022-10-03T00:47:48;24.88;;;13.55;;
11447;SDS011;43755;49.736;8.734;2022-10-03T00:50:08;19.70;;;12.05;;
11447;SDS011;43755;49.736;8.734;2022-10-03T00:55:05;19.80;;;12.23;;
11447;SDS011;43755;49.736;8.734;2022-10-03T00:57:39;20.02;;;12.77;;
11447;SDS011;43755;49.736;8.734;2022-10-03T01:00:04;16.92;;;12.63;;
11447;SDS011;43755;49.736;8.734;2022-10-03T01:02:16;14.75;;;11.32;;
11447;SDS011;43755;49.736;8.734;2022-10-03T01:04:36;10.45;;;9.20;;
11447;SDS011;43755;49.736;8.734;2022-10-03T01:06:51;9.38;;;8.43;;
11447;SDS011;43755;49.736;8.734;2022-10-03T01:09:05;20.00;;;11.23;;
11447;SDS011;43755;49.736;8.734;2022-10-03T01:11:20;27.73;;;11.75;;
11447;SDS011;43755;49.736;8.734;2022-10-03T01:13:35;16.20;;;12.20;;
11447;SDS011;43755;49.736;8.734;2022-10-03T01:15:50;22.58;;;12.95;;
11447;SDS011;43755;49.736;8.734;2022-10-03T01:18:03;22.73;;;13.23;;
11447;SDS011;43755;49.736;8.734;2022-10-03T01:20:31;15.77;;;11.93;;
11447;SDS011;43755;49.736;8.734;2022-10-03T01:22:47;15.98;;;11.10;;
11447;SDS011;43755;49.736;8.734;2022-10-03T01:25:06;50.50;;;11.60;;
11447;SDS011;43755;49.736;8.734;2022-10-03T01:27:12;16.92;;;11.55;;
11447;SDS011;43755;49.736;8.734;2022-10-03T01:29:20;69.10;;;12.15;;
11447;SDS011;43755;49.736;8.734;2022-10-03T01:31:46;23.55;;;9.63;;
11447;SDS011;43755;49.736;8.734;2022-10-03T01:33:54;12.65;;;9.52;;
11447;SDS011;43755;49.736;8.734;2022-10-03T01:36:08;35.92;;;11.38;;
11447;SDS011;43755;49.736;8.734;2022-10-03T01:38:14;79.45;;;13.07;;
11447;SDS011;43755;49.736;8.734;2022-10-03T01:40:21;49.83;;;12.95;;
11447;SDS011;43755;49.736;8.734;2022-10-03T01:42:31;42.38;;;12.30;;
11447;SDS011;43755;49.736;8.734;2022-10-03T01:44:46;60.88;;;13.20;;
11447;SDS011;43755;49.736;8.734;2022-10-03T01:47:04;40.63;;;12.93;;
11447;SDS011;43755;49.736;8.734;2022-10-03T01:49:15;25.92;;;12.43;;
11447;SDS011;43755;49.736;8.734;2022-10-03T01:51:28;46.60;;;13.18;;
11447;SDS011;43755;49.736;8.734;2022-10-03T01:53:37;22.10;;;12.57;;
11447;SDS011;43755;49.736;8.734;2022-10-03T01:55:49;25.13;;;12.93;;
11447;SDS011;43755;49.736;8.734;2022-10-03T01:57:58;18.75;;;12.38;;
11447;SDS011;43755;49.736;8.734;2022-10-03T02:00:07;19.63;;;12.18;;
11447;SDS011;43755;49.736;8.734;2022-10-03T02:02:14;19.60;;;11.93;;
11447;SDS011;43755;49.736;8.734;2022-10-03T02:04:27;22.42;;;12.43;;
11447;SDS011;43755;49.736;8.734;2022-10-03T02:06:39;52.50;;;14.18;;
11447;SDS011;43755;49.736;8.734;2022-10-03T02:08:51;21.02;;;13.57;;
11447;SDS011;43755;49.736;8.734;2022-10-03T02:10:58;22.23;;;13.90;;
11447;SDS011;43755;49.736;8.734;2022-10-03T02:13:04;23.92;;;14.38;;
11447;SDS011;43755;49.736;8.734;2022-10-03T02:15:16;15.02;;;12.68;;
11447;SDS011;43755;49.736;8.734;2022-10-03T02:17:23;32.40;;;13.75;;
11447;SDS011;43755;49.736;8.734;2022-10-03T02:19:30;16.83;;;12.25;;
11447;SDS011;43755;49.736;8.734;2022-10-03T02:21:45;15.13;;;12.40;;
11447;SDS011;43755;49.736;8.734;2022-10-03T02:23:48;14.35;;;12.55;;
11447;SDS011;43755;49.736;8.734;2022-10-03T02:25:55;18.25;;;12.93;;
11447;SDS011;43755;49.736;8.734;2022-10-03T02:28:11;17.20;;;12.93;;
11447;SDS011;43755;49.736;8.734;2022-10-03T02:30:23;18.40;;;13.73;;
11447;SDS011;43755;49.736;8.734;2022-10-03T02:35:11;19.83;;;14.00;;
11447;SDS011;43755;49.736;8.734;2022-10-03T02:37:35;29.45;;;15.57;;
11447;SDS011;43755;49.736;8.734;2022-10-03T02:42:27;28.83;;;14.85;;
11447;SDS011;43755;49.736;8.734;2022-10-03T02:47:31;24.25;;;13.73;;
11447;SDS011;43755;49.736;8.734;2022-10-03T02:49:55;27.38;;;14.10;;
11447;SDS011;43755;49.736;8.734;2022-10-03T02:52:28;20.80;;;14.07;;
11447;SDS011;43755;49.736;8.734;2022-10-03T02:54:51;27.38;;;15.80;;
11447;SDS011;43755;49.736;8.734;2022-10-03T02:57:03;21.70;;;14.85;;
11447;SDS011;43755;49.736;8.734;2022-10-03T02:59:34;21.00;;;13.88;;
11447;SDS011;43755;49.736;8.734;2022-10-03T03:01:58;22.55;;;14.98;;
11447;SDS011;43755;49.736;8.734;2022-10-03T03:04:28;22.92;;;14.88;;
11447;SDS011;43755;49.736;8.734;2022-10-03T03:06:53;24.08;;;15.30;;
11447;SDS011;43755;49.736;8.734;2022-10-03T03:12:05;22.10;;;14.63;;
11447;SDS011;43755;49.736;8.734;2022-10-03T03:17:25;18.63;;;12.52;;
11447;SDS011;43755;49.736;8.734;2022-10-03T03:19:43;17.85;;;13.23;;
11447;SDS011;43755;49.736;8.734;2022-10-03T03:22:06;20.67;;;13.18;;
11447;SDS011;43755;49.736;8.734;2022-10-03T03:24:21;14.73;;;12.00;;
11447;SDS011;43755;49.736;8.734;2022-10-03T03:26:48;15.90;;;12.85;;
11447;SDS011;43755;49.736;8.734;2022-10-03T03:29:04;26.85;;;17.48;;
11447;SDS011;43755;49.736;8.734;2022-10-03T03:31:13;34.22;;;18.17;;
11447;SDS011;43755;49.736;8.734;2022-10-03T03:33:20;29.25;;;16.77;;
11447;SDS011;43755;49.736;8.734;2022-10-03T03:35:34;28.33;;;17.90;;
11447;SDS011;43755;49.736;8.734;2022-10-03T03:37:48;28.20;;;17.95;;
11447;SDS011;43755;49.736;8.734;2022-10-03T03:40:01;32.95;;;18.15;;
11447;SDS011;43755;49.736;8.734;2022-10-03T03:42:15;32.75;;;17.52;;
11447;SDS011;43755;49.736;8.734;2022-10-03T03:44:45;32.28;;;17.35;;
11447;SDS011;43755;49.736;8.734;2022-10-03T03:49:30;31.05;;;17.77;;
11447;SDS011;43755;49.736;8.734;2022-10-03T03:51:50;29.88;;;18.40;;
11447;SDS011;43755;49.736;8.734;2022-10-03T03:54:08;28.70;;;17.40;;
11447;SDS011;43755;49.736;8.734;2022-10-03T03:56:28;34.78;;;18.60;;
11447;SDS011;43755;49.736;8.734;2022-10-03T03:58:48;33.40;;;18.52;;
11447;SDS011;43755;49.736;8.734;2022-10-03T04:01:04;31.50;;;17.77;;
11447;SDS011;43755;49.736;8.734;2022-10-03T04:03:23;30.23;;;18.08;;
11447;SDS011;43755;49.736;8.734;2022-10-03T04:05:33;25.13;;;16.50;;
11447;SDS011;43755;49.736;8.734;2022-10-03T04:07:53;19.92;;;15.35;;
11447;SDS011;43755;49.736;8.734;2022-10-03T04:10:24;23.48;;;14.68;;
11447;SDS011;43755;49.736;8.734;2022-10-03T04:12:36;23.30;;;14.90;;
11447;SDS011;43755;49.736;8.734;2022-10-03T04:14:59;16.60;;;13.68;;
11447;SDS011;43755;49.736;8.734;2022-10-03T04:17:17;22.38;;;14.25;;
11447;SDS011;43755;49.736;8.734;2022-10-03T04:19:57;20.00;;;14.27;;
11447;SDS011;43755;49.736;8.734;2022-10-03T04:22:17;24.90;;;15.93;;
11447;SDS011;43755;49.736;8.734;2022-10-03T04:24:41;21.95;;;15.63;;
11447;SDS011;43755;49.736;8.734;2022-10-03T04:26:56;33.05;;;17.75;;
11447;SDS011;43755;49.736;8.734;2022-10-03T04:29:24;28.10;;;16.15;;
11447;SDS011;43755;49.736;8.734;2022-10-03T04:31:42;20.88;;;14.27;;
11447;SDS011;43755;49.736;8.734;2022-10-03T04:34:08;21.00;;;15.07;;
11447;SDS011;43755;49.736;8.734;2022-10-03T04:36:23;23.20;;;14.63;;
11447;SDS011;43755;49.736;8.734;2022-10-03T04:38:42;19.63;;;14.80;;
11447;SDS011;43755;49.736;8.734;2022-10-03T04:40:54;27.52;;;16.27;;
11447;SDS011;43755;49.736;8.734;2022-10-03T04:43:06;20.58;;;14.85;;
11447;SDS011;43755;49.736;8.734;2022-10-03T04:45:16;25.08;;;16.50;;
11447;SDS011;43755;49.736;8.734;2022-10-03T04:47:30;21.63;;;15.13;;
11447;SDS011;43755;49.736;8.734;2022-10-03T04:49:37;30.40;;;16.65;;
11447;SDS011;43755;49.736;8.734;2022-10-03T04:51:48;25.27;;;16.25;;
11447;SDS011;43755;49.736;8.734;2022-10-03T04:53:58;26.45;;;16.10;;
11447;SDS011;43755;49.736;8.734;2022-10-03T04:56:26;20.10;;;14.50;;
11447;SDS011;43755;49.736;8.734;2022-10-03T04:58:38;22.45;;;15.25;;
11447;SDS011;43755;49.736;8.734;2022-10-03T05:00:49;27.50;;;16.55;;
11447;SDS011;43755;49.736;8.734;2022-10-03T05:03:00;22.65;;;15.80;;
11447;SDS011;43755;49.736;8.734;2022-10-03T05:05:07;21.63;;;14.65;;
11447;SDS011;43755;49.736;8.734;2022-10-03T05:07:20;20.45;;;14.43;;
11447;SDS011;43755;49.736;8.734;2022-10-03T05:09:29;19.55;;;14.48;;
11447;SDS011;43755;49.736;8.734;2022-10-03T05:11:41;19.92;;;14.68;;
11447;SDS011;43755;49.736;8.734;2022-10-03T05:13:56;21.95;;;14.75;;
11447;SDS011;43755;49.736;8.734;2022-10-03T05:16:06;23.40;;;15.63;;
11447;SDS011;43755;49.736;8.734;2022-10-03T05:18:16;20.67;;;14.80;;
11447;SDS011;43755;49.736;8.734;2022-10-03T05:20:29;46.80;;;14.27;;
11447;SDS011;43755;49.736;8.734;2022-10-03T05:22:42;25.55;;;13.52;;
11447;SDS011;43755;49.736;8.734;2022-10-03T05:24:49;34.28;;;14.32;;
11447;SDS011;43755;49.736;8.734;2022-10-03T05:27:00;26.92;;;13.52;;
11447;SDS011;43755;49.736;8.734;2022-10-03T05:29:14;25.10;;;14.05;;
11447;SDS011;43755;49.736;8.734;2022-10-03T05:31:27;20.10;;;13.35;;
11447;SDS011;43755;49.736;8.734;2022-10-03T05:33:39;28.55;;;14.80;;
11447;SDS011;43755;49.736;8.734;2022-10-03T05:35:49;39.53;;;14.75;;
11447;SDS011;43755;49.736;8.734;2022-10-03T05:38:06;26.73;;;13.63;;
11447;SDS011;43755;49.736;8.734;2022-10-03T05:40:38;19.90;;;12.00;;
11447;SDS011;43755;49.736;8.734;2022-10-03T05:42:49;21.42;;;13.30;;
11447;SDS011;43755;49.736;8.734;2022-10-03T05:45:02;22.95;;;14.00;;
11447;SDS011;43755;49.736;8.734;2022-10-03T05:47:07;27.30;;;16.27;;
11447;SDS011;43755;49.736;8.734;2022-10-03T05:49:39;22.90;;;14.82;;
11447;SDS011;43755;49.736;8.734;2022-10-03T05:52:01;44.03;;;25.05;;
11447;SDS011;43755;49.736;8.734;2022-10-03T05:54:28;26.13;;;19.02;;
11447;SDS011;43755;49.736;8.734;2022-10-03T05:56:57;33.55;;;17.35;;
11447;SDS011;43755;49.736;8.734;2022-10-03T05:59:26;31.83;;;20.48;;
11447;SDS011;43755;49.736;8.734;2022-10-03T06:04:21;47.70;;;32.47;;
11447;SDS011;43755;49.736;8.734;2022-10-03T06:06:47;52.85;;;29.70;;
11447;SDS011;43755;49.736;8.734;2022-10-03T06:09:03;35.00;;;25.13;;
11447;SDS011;43755;49.736;8.734;2022-10-03T06:11:30;43.25;;;29.00;;
11447;SDS011;43755;49.736;8.734;2022-10-03T06:13:50;35.67;;;22.27;;
11447;SDS011;43755;49.736;8.734;2022-10-03T06:16:15;29.38;;;20.27;;
11447;SDS011;43755;49.736;8.734;2022-10-03T06:18:31;27.67;;;21.30;;
11447;SDS011;43755;49.736;8.734;2022-10-03T06:21:04;36.25;;;22.45;;
11447;SDS011;43755;49.736;8.734;2022-10-03T06:23:26;32.28;;;22.15;;
11447;SDS011;43755;49.736;8.734;2022-10-03T06:25:54;39.33;;;23.67;;
11447;SDS011;43755;49.736;8.734;2022-10-03T06:28:29;46.08;;;31.85;;
11447;SDS011;43755;49.736;8.734;2022-10-03T06:30:56;37.83;;;29.02;;
11447;SDS011;43755;49.736;8.734;2022-10-03T06:36:08;30.10;;;20.10;;
11447;SDS011;43755;49.736;8.734;2022-10-03T06:41:16;34.88;;;19.58;;
11447;SDS011;43755;49.736;8.734;2022-10-03T06:43:45;32.95;;;18.15;;
11447;SDS011;43755;49.736;8.734;2022-10-03T06:46:18;25.67;;;16.85;;
11447;SDS011;43755;49.736;8.734;2022-10-03T06:48:56;28.52;;;17.83;;
11447;SDS011;43755;49.736;8.734;2022-10-03T06:51:27;33.15;;;18.85;;
11447;SDS011;43755;49.736;8.734;2022-10-03T06:53:56;34.47;;;21.67;;
11447;SDS011;43755;49.736;8.734;2022-10-03T06:56:34;34.42;;;20.85;;
11447;SDS011;43755;49.736;8.734;2022-10-03T06:58:58;33.17;;;19.48;;
11447;SDS011;43755;49.736;8.734;2022-10-03T07:01:21;27.60;;;17.13;;
11447;SDS011;43755;49.736;8.734;2022-10-03T07:03:49;26.33;;;18.00;;
11447;SDS011;43755;49.736;8.734;2022-10-03T07:06:12;30.48;;;20.25;;
11447;SDS011;43755;49.736;8.734;2022-10-03T07:08:52;32.83;;;20.10;;
11447;SDS011;43755;49.736;8.734;2022-10-03T07:16:30;31.27;;;19.45;;
11447;SDS011;43755;49.736;8.734;2022-10-03T07:18:56;41.67;;;21.50;;
11447;SDS011;43755;49.736;8.734;2022-10-03T07:24:00;33.42;;;17.80;;
11447;SDS011;43755;49.736;8.734;2022-10-03T07:29:17;25.90;;;16.52;;
11447;SDS011;43755;49.736;8.734;2022-10-03T07:31:27;30.38;;;15.65;;
11447;SDS011;43755;49.736;8.734;2022-10-03T07:36:21;24.40;;;14.13;;
11447;SDS011;43755;49.736;8.734;2022-10-03T07:41:46;23.08;;;13.63;;
11447;SDS011;43755;49.736;8.734;2022-10-03T07:47:19;19.33;;;12.70;;
11447;SDS011;43755;49.736;8.734;2022-10-03T07:49:57;29.40;;;12.40;;
11447;SDS011;43755;49.736;8.734;2022-10-03T07:52:26;20.75;;;12.40;;
11447;SDS011;43755;49.736;8.734;2022-10-03T07:54:47;23.85;;;12.48;;
11447;SDS011;43755;49.736;8.734;2022-10-03T07:57:13;28.88;;;12.63;;
11447;SDS011;43755;49.736;8.734;2022-10-03T08:02:22;21.05;;;10.98;;
11447;SDS011;43755;49.736;8.734;2022-10-03T08:04:42;17.73;;;9.52;;
11447;SDS011;43755;49.736;8.734;2022-10-03T08:07:14;21.98;;;10.43;;
11447;SDS011;43755;49.736;8.734;2022-10-03T08:09:37;15.75;;;9.68;;
11447;SDS011;43755;49.736;8.734;2022-10-03T08:14:37;16.35;;;8.77;;
11447;SDS011;43755;49.736;8.734;2022-10-03T08:16:57;16.67;;;7.10;;
11447;SDS011;43755;49.736;8.734;2022-10-03T08:19:16;12.80;;;6.93;;
11447;SDS011;43755;49.736;8.734;2022-10-03T08:21:38;14.55;;;5.95;;
11447;SDS011;43755;49.736;8.734;2022-10-03T08:26:35;10.57;;;5.85;;
11447;SDS011;43755;49.736;8.734;2022-10-03T08:28:58;14.75;;;5.82;;
11447;SDS011;43755;49.736;8.734;2022-10-03T08:31:27;14.88;;;8.13;;
11447;SDS011;43755;49.736;8.734;2022-10-03T08:33:56;15.73;;;8.60;;
11447;SDS011;43755;49.736;8.734;2022-10-03T08:39:12;12.25;;;7.55;;
11447;SDS011;43755;49.736;8.734;2022-10-03T08:47:06;13.45;;;6.93;;
11447;SDS011;43755;49.736;8.734;2022-10-03T08:49:32;15.20;;;7.53;;
11447;SDS011;43755;49.736;8.734;2022-10-03T08:51:55;13.10;;;7.57;;
11447;SDS011;43755;49.736;8.734;2022-10-03T08:54:13;13.68;;;6.72;;
11447;SDS011;43755;49.736;8.734;2022-10-03T08:56:45;11.75;;;7.15;;
11447;SDS011;43755;49.736;8.734;2022-10-03T08:59:13;12.27;;;6.60;;
11447;SDS011;43755;49.736;8.734;2022-10-03T09:01:33;12.52;;;6.65;;
11447;SDS011;43755;49.736;8.734;2022-10-03T09:09:14;10.88;;;6.25;;
11447;SDS011;43755;49.736;8.734;2022-10-03T09:11:30;8.73;;;5.40;;
11447;SDS011;43755;49.736;8.734;2022-10-03T09:13:54;11.63;;;5.72;;
11447;SDS011;43755;49.736;8.734;2022-10-03T09:16:33;10.07;;;5.10;;
11447;SDS011;43755;49.736;8.734;2022-10-03T09:18:51;11.27;;;5.75;;
11447;SDS011;43755;49.736;8.734;2022-10-03T09:23:55;15.45;;;5.60;;
11447;SDS011;43755;49.736;8.734;2022-10-03T09:26:18;10.85;;;5.63;;
11447;SDS011;43755;49.736;8.734;2022-10-03T09:28:55;12.13;;;5.55;;
11447;SDS011;43755;49.736;8.734;2022-10-03T09:31:22;9.93;;;5.57;;
11447;SDS011;43755;49.736;8.734;2022-10-03T09:36:23;11.98;;;6.57;;
11447;SDS011;43755;49.736;8.734;2022-10-03T09:39:02;8.48;;;5.15;;
11447;SDS011;43755;49.736;8.734;2022-10-03T09:44:05;12.68;;;6.63;;
11447;SDS011;43755;49.736;8.734;2022-10-03T09:46:27;7.65;;;4.60;;
11447;SDS011;43755;49.736;8.734;2022-10-03T09:48:43;8.25;;;4.00;;
11447;SDS011;43755;49.736;8.734;2022-10-03T09:51:27;6.88;;;4.07;;
11447;SDS011;43755;49.736;8.734;2022-10-03T09:53:42;7.13;;;3.60;;
11447;SDS011;43755;49.736;8.734;2022-10-03T09:56:13;7.30;;;3.45;;
11447;SDS011;43755;49.736;8.734;2022-10-03T09:58:39;6.03;;;3.60;;
11447;SDS011;43755;49.736;8.734;2022-10-03T10:01:09;8.98;;;4.40;;
11447;SDS011;43755;49.736;8.734;2022-10-03T10:06:17;6.47;;;2.28;;
11447;SDS011;43755;49.736;8.734;2022-10-03T10:08:34;7.53;;;2.15;;
11447;SDS011;43755;49.736;8.734;2022-10-03T10:11:09;5.60;;;2.78;;
11447;SDS011;43755;49.736;8.734;2022-10-03T10:13:36;5.85;;;2.83;;
11447;SDS011;43755;49.736;8.734;2022-10-03T10:18:57;11.02;;;4.25;;
11447;SDS011;43755;49.736;8.734;2022-10-03T10:21:33;5.97;;;3.85;;
11447;SDS011;43755;49.736;8.734;2022-10-03T10:24:00;13.25;;;4.15;;
11447;SDS011;43755;49.736;8.734;2022-10-03T10:26:26;7.03;;;2.80;;
11447;SDS011;43755;49.736;8.734;2022-10-03T10:29:01;5.13;;;3.20;;
11447;SDS011;43755;49.736;8.734;2022-10-03T10:31:50;4.85;;;3.20;;
11447;SDS011;43755;49.736;8.734;2022-10-03T10:37:11;8.88;;;3.53;;
11447;SDS011;43755;49.736;8.734;2022-10-03T10:39:47;7.63;;;4.05;;
11447;SDS011;43755;49.736;8.734;2022-10-03T10:44:56;9.52;;;4.40;;
11447;SDS011;43755;49.736;8.734;2022-10-03T10:58:37;6.22;;;2.45;;
11447;SDS011;43755;49.736;8.734;2022-10-03T11:06:31;5.43;;;2.80;;
11447;SDS011;43755;49.736;8.734;2022-10-03T11:09:05;5.00;;;2.67;;
11447;SDS011;43755;49.736;8.734;2022-10-03T11:14:20;8.05;;;2.58;;
11447;SDS011;43755;49.736;8.734;2022-10-03T11:17:16;8.38;;;2.60;;
11447;SDS011;43755;49.736;8.734;2022-10-03T11:27:37;4.22;;;1.67;;
11447;SDS011;43755;49.736;8.734;2022-10-03T11:35:29;3.67;;;1.90;;
11447;SDS011;43755;49.736;8.734;2022-10-03T11:37:51;4.85;;;2.40;;
11447;SDS011;43755;49.736;8.734;2022-10-03T11:40:03;6.43;;;2.67;;
11447;SDS011;43755;49.736;8.734;2022-10-03T11:42:20;7.63;;;3.00;;
11447;SDS011;43755;49.736;8.734;2022-10-03T11:44:32;5.15;;;2.80;;
11447;SDS011;43755;49.736;8.734;2022-10-03T11:46:46;7.53;;;3.03;;
11447;SDS011;43755;49.736;8.734;2022-10-03T11:48:55;9.80;;;3.05;;
11447;SDS011;43755;49.736;8.734;2022-10-03T11:51:03;6.18;;;2.92;;
11447;SDS011;43755;49.736;8.734;2022-10-03T11:53:10;6.13;;;2.83;;
11447;SDS011;43755;49.736;8.734;2022-10-03T11:55:21;5.88;;;2.90;;
11447;SDS011;43755;49.736;8.734;2022-10-03T11:57:31;5.43;;;2.75;;
11447;SDS011;43755;49.736;8.734;2022-10-03T11:59:44;7.57;;;2.67;;
11447;SDS011;43755;49.736;8.734;2022-10-03T12:01:58;9.55;;;3.20;;
11447;SDS011;43755;49.736;8.734;2022-10-03T12:04:09;5.43;;;2.50;;
11447;SDS011;43755;49.736;8.734;2022-10-03T12:06:36;4.55;;;2.45;;
11447;SDS011;43755;49.736;8.734;2022-10-03T12:09:09;17.00;;;3.90;;
11447;SDS011;43755;49.736;8.734;2022-10-03T12:11:17;13.95;;;3.00;;
11447;SDS011;43755;49.736;8.734;2022-10-03T12:13:27;6.82;;;3.33;;
11447;SDS011;43755;49.736;8.734;2022-10-03T12:15:36;7.00;;;2.90;;
11447;SDS011;43755;49.736;8.734;2022-10-03T12:17:42;8.25;;;2.95;;
11447;SDS011;43755;49.736;8.734;2022-10-03T12:19:55;7.45;;;2.78;;
11447;SDS011;43755;49.736;8.734;2022-10-03T12:22:16;3.70;;;2.55;;
11447;SDS011;43755;49.736;8.734;2022-10-03T12:24:27;5.72;;;2.60;;
11447;SDS011;43755;49.736;8.734;2022-10-03T12:26:44;6.53;;;2.50;;
11447;SDS011;43755;49.736;8.734;2022-10-03T12:28:51;6.93;;;2.50;;
11447;SDS011;43755;49.736;8.734;2022-10-03T12:30:58;6.90;;;2.40;;
11447;SDS011;43755;49.736;8.734;2022-10-03T12:33:09;8.73;;;2.60;;
11447;SDS011;43755;49.736;8.734;2022-10-03T12:35:26;6.43;;;2.40;;
11447;SDS011;43755;49.736;8.734;2022-10-03T12:37:45;7.00;;;2.70;;
11447;SDS011;43755;49.736;8.734;2022-10-03T12:40:00;4.40;;;2.30;;
11447;SDS011;43755;49.736;8.734;2022-10-03T12:42:11;6.10;;;2.50;;
11447;SDS011;43755;49.736;8.734;2022-10-03T12:44:29;7.82;;;2.58;;
11447;SDS011;43755;49.736;8.734;2022-10-03T12:46:43;4.65;;;2.47;;
11447;SDS011;43755;49.736;8.734;2022-10-03T12:49:02;6.80;;;2.42;;
11447;SDS011;43755;49.736;8.734;2022-10-03T12:51:19;6.47;;;2.47;;
11447;SDS011;43755;49.736;8.734;2022-10-03T12:54:01;4.45;;;1.90;;
11447;SDS011;43755;49.736;8.734;2022-10-03T12:56:28;7.13;;;2.45;;
11447;SDS011;43755;49.736;8.734;2022-10-03T12:59:06;5.40;;;2.25;;
11447;SDS011;43755;49.736;8.734;2022-10-03T13:01:26;4.53;;;2.55;;
11447;SDS011;43755;49.736;8.734;2022-10-03T13:06:24;7.07;;;2.15;;
11447;SDS011;43755;49.736;8.734;2022-10-03T13:08:52;2.92;;;1.75;;
11447;SDS011;43755;49.736;8.734;2022-10-03T13:11:20;7.85;;;2.45;;
11447;SDS011;43755;49.736;8.734;2022-10-03T13:13:33;4.70;;;2.15;;
11447;SDS011;43755;49.736;8.734;2022-10-03T13:15:58;4.05;;;1.90;;
11447;SDS011;43755;49.736;8.734;2022-10-03T13:18:26;7.32;;;2.13;;
11447;SDS011;43755;49.736;8.734;2022-10-03T13:20:36;4.95;;;2.17;;
11447;SDS011;43755;49.736;8.734;2022-10-03T13:22:54;3.70;;;2.20;;
11447;SDS011;43755;49.736;8.734;2022-10-03T13:25:09;5.25;;;2.30;;
11447;SDS011;43755;49.736;8.734;2022-10-03T13:27:48;7.10;;;2.20;;
11447;SDS011;43755;49.736;8.734;2022-10-03T13:30:05;5.03;;;2.35;;
11447;SDS011;43755;49.736;8.734;2022-10-03T13:32:33;4.43;;;2.42;;
11447;SDS011;43755;49.736;8.734;2022-10-03T13:34:45;4.70;;;2.20;;
11447;SDS011;43755;49.736;8.734;2022-10-03T13:37:30;4.20;;;2.20;;
11447;SDS011;43755;49.736;8.734;2022-10-03T13:39:55;4.20;;;2.40;;
11447;SDS011;43755;49.736;8.734;2022-10-03T13:42:11;5.10;;;2.40;;
11447;SDS011;43755;49.736;8.734;2022-10-03T13:44:41;5.20;;;2.13;;
11447;SDS011;43755;49.736;8.734;2022-10-03T13:46:58;6.60;;;2.38;;
11447;SDS011;43755;49.736;8.734;2022-10-03T13:49:30;4.07;;;2.28;;
11447;SDS011;43755;49.736;8.734;2022-10-03T13:51:43;7.78;;;2.80;;
11447;SDS011;43755;49.736;8.734;2022-10-03T13:54:01;3.78;;;2.10;;
11447;SDS011;43755;49.736;8.734;2022-10-03T13:56:16;3.83;;;2.50;;
11447;SDS011;43755;49.736;8.734;2022-10-03T13:58:34;3.05;;;2.00;;
11447;SDS011;43755;49.736;8.734;2022-10-03T14:00:46;5.32;;;2.22;;
11447;SDS011;43755;49.736;8.734;2022-10-03T14:03:16;3.53;;;2.33;;
11447;SDS011;43755;49.736;8.734;2022-10-03T14:07:50;6.97;;;2.55;;
11447;SDS011;43755;49.736;8.734;2022-10-03T14:10:06;4.40;;;1.98;;
11447;SDS011;43755;49.736;8.734;2022-10-03T14:12:17;4.57;;;2.03;;
11447;SDS011;43755;49.736;8.734;2022-10-03T14:14:33;4.47;;;2.30;;
11447;SDS011;43755;49.736;8.734;2022-10-03T14:16:46;3.65;;;2.25;;
11447;SDS011;43755;49.736;8.734;2022-10-03T14:21:41;4.18;;;2.33;;
11447;SDS011;43755;49.736;8.734;2022-10-03T14:24:05;4.90;;;2.35;;
11447;SDS011;43755;49.736;8.734;2022-10-03T14:26:20;4.43;;;2.45;;
11447;SDS011;43755;49.736;8.734;2022-10-03T14:28:43;6.30;;;2.63;;
11447;SDS011;43755;49.736;8.734;2022-10-03T14:31:02;3.95;;;2.08;;
11447;SDS011;43755;49.736;8.734;2022-10-03T14:33:31;6.85;;;2.50;;
11447;SDS011;43755;49.736;8.734;2022-10-03T14:35:51;3.08;;;2.20;;
11447;SDS011;43755;49.736;8.734;2022-10-03T14:38:03;4.38;;;2.67;;
11447;SDS011;43755;49.736;8.734;2022-10-03T14:40:24;5.55;;;2.50;;
11447;SDS011;43755;49.736;8.734;2022-10-03T14:42:42;4.53;;;2.42;;
11447;SDS011;43755;49.736;8.734;2022-10-03T14:45:02;6.53;;;2.45;;
11447;SDS011;43755;49.736;8.734;2022-10-03T14:47:30;7.72;;;2.95;;
11447;SDS011;43755;49.736;8.734;2022-10-03T14:49:45;6.93;;;2.55;;
11447;SDS011;43755;49.736;8.734;2022-10-03T14:51:59;4.93;;;2.60;;
11447;SDS011;43755;49.736;8.734;2022-10-03T14:54:23;6.97;;;2.53;;
11447;SDS011;43755;49.736;8.734;2022-10-03T14:56:43;7.25;;;2.60;;
11447;SDS011;43755;49.736;8.734;2022-10-03T14:58:54;3.95;;;2.70;;
11447;SDS011;43755;49.736;8.734;2022-10-03T15:03:27;8.52;;;3.20;;
11447;SDS011;43755;49.736;8.734;2022-10-03T15:08:11;5.50;;;2.85;;
11447;SDS011;43755;49.736;8.734;2022-10-03T15:10:20;7.25;;;2.90;;
11447;SDS011;43755;49.736;8.734;2022-10-03T15:12:32;7.45;;;3.60;;
11447;SDS011;43755;49.736;8.734;2022-10-03T15:14:44;6.22;;;3.33;;
11447;SDS011;43755;49.736;8.734;2022-10-03T15:19:28;6.95;;;3.45;;
11447;SDS011;43755;49.736;8.734;2022-10-03T15:21:43;5.75;;;3.40;;
11447;SDS011;43755;49.736;8.734;2022-10-03T15:23:59;5.68;;;3.10;;
11447;SDS011;43755;49.736;8.734;2022-10-03T15:26:19;5.72;;;2.78;;
11447;SDS011;43755;49.736;8.734;2022-10-03T15:28:35;6.28;;;3.08;;
11447;SDS011;43755;49.736;8.734;2022-10-03T15:30:47;7.32;;;3.60;;
11447;SDS011;43755;49.736;8.734;2022-10-03T15:33:13;5.82;;;3.60;;
11447;SDS011;43755;49.736;8.734;2022-10-03T15:35:20;7.20;;;4.18;;
11447;SDS011;43755;49.736;8.734;2022-10-03T15:37:40;6.63;;;4.15;;
11447;SDS011;43755;49.736;8.734;2022-10-03T15:39:48;7.07;;;3.97;;
11447;SDS011;43755;49.736;8.734;2022-10-03T15:41:53;5.88;;;3.90;;
11447;SDS011;43755;49.736;8.734;2022-10-03T15:44:01;6.28;;;4.03;;
11447;SDS011;43755;49.736;8.734;2022-10-03T15:46:13;4.07;;;3.67;;
11447;SDS011;43755;49.736;8.734;2022-10-03T15:48:26;7.25;;;4.00;;
11447;SDS011;43755;49.736;8.734;2022-10-03T15:50:32;13.00;;;4.60;;
11447;SDS011;43755;49.736;8.734;2022-10-03T15:52:44;6.13;;;4.00;;
11447;SDS011;43755;49.736;8.734;2022-10-03T15:54:52;12.20;;;4.28;;
11447;SDS011;43755;49.736;8.734;2022-10-03T15:57:00;7.43;;;3.90;;
11447;SDS011;43755;49.736;8.734;2022-10-03T16:01:46;6.38;;;3.92;;
11447;SDS011;43755;49.736;8.734;2022-10-03T16:04:03;8.23;;;4.07;;
11447;SDS011;43755;49.736;8.734;2022-10-03T16:06:21;8.13;;;4.28;;
11447;SDS011;43755;49.736;8.734;2022-10-03T16:08:45;12.40;;;4.15;;